Time;durP1;ratioP1;P1;durP2;ratioP2;P2;SDS_P1;SDS_P2;PMS_P1;PMS_P2;Temp;Humidity;BMP_temperature;BMP_pressure;BME280_temperature;BME280_humidity;BME280_pressure;Samples;Min_cycle;Max_cycle;Signal;HPM_P1;HPM_P2
2021/04/24 00:00:34;;;;;;;14.95;7.88;;;8.80;83.90;;;;;;5033308;28;20049;-62
2021/04/24 00:02:59;;;;;;;17.23;8.15;;;8.80;84.80;;;;;;5033105;28;20036;-62
2021/04/24 00:05:53;;;;;;;15.98;7.97;;;8.80;84.20;;;;;;5034750;28;20539;-62
2021/04/24 00:08:19;;;;;;;20.65;8.48;;;8.80;84.60;;;;;;5034219;28;20045;-62
2021/04/24 00:10:47;;;;;;;13.80;7.55;;;8.70;85.20;;;;;;5034910;28;20532;-62
2021/04/24 00:13:14;;;;;;;15.15;7.68;;;8.70;85.80;;;;;;5034571;28;20052;-62
2021/04/24 00:15:40;;;;;;;16.95;8.70;;;8.70;86.90;;;;;;5034566;28;20018;-62
2021/04/24 00:18:07;;;;;;;16.27;7.85;;;8.60;86.60;;;;;;5034287;28;20029;-62
2021/04/24 00:20:33;;;;;;;16.55;8.70;;;8.60;86.90;;;;;;5034234;28;20041;-62
2021/04/24 00:22:58;;;;;;;14.63;8.25;;;8.60;87.50;;;;;;5034210;28;20018;-62
2021/04/24 00:25:24;;;;;;;15.82;8.82;;;8.50;88.20;;;;;;5034019;28;20025;-62
2021/04/24 00:27:50;;;;;;;14.38;8.80;;;8.50;88.50;;;;;;5033760;28;20038;-62
2021/04/24 00:30:16;;;;;;;16.35;8.20;;;8.50;88.90;;;;;;5034401;28;20017;-62
2021/04/24 00:32:42;;;;;;;19.85;8.95;;;8.50;89.30;;;;;;5033553;28;20060;-63
2021/04/24 00:35:09;;;;;;;21.60;9.27;;;8.50;89.60;;;;;;5033744;28;20045;-62
2021/04/24 00:37:35;;;;;;;17.23;8.40;;;8.40;90.00;;;;;;5034276;28;20049;-62
2021/04/24 00:40:01;;;;;;;16.42;8.90;;;8.40;90.40;;;;;;5033794;28;20025;-62
2021/04/24 00:42:27;;;;;;;17.00;9.23;;;8.30;90.60;;;;;;5033436;28;20087;-62
2021/04/24 00:44:54;;;;;;;24.00;8.73;;;8.40;90.80;;;;;;5033936;28;20048;-62
2021/04/24 00:47:24;;;;;;;20.10;8.85;;;8.30;91.00;;;;;;5033817;28;20109;-62
2021/04/24 00:49:50;;;;;;;22.55;8.60;;;8.20;91.20;;;;;;5033924;28;20373;-62
2021/04/24 00:52:16;;;;;;;22.17;9.43;;;8.30;91.20;;;;;;5033800;28;20025;-62
2021/04/24 00:54:42;;;;;;;17.75;9.50;;;8.30;91.40;;;;;;5033776;28;20020;-62
2021/04/24 00:57:08;;;;;;;18.27;9.18;;;8.20;91.70;;;;;;5033732;28;20242;-62
2021/04/24 00:59:36;;;;;;;17.45;9.55;;;8.20;92.10;;;;;;5033798;28;20036;-62
2021/04/24 01:02:04;;;;;;;18.17;9.13;;;8.20;91.90;;;;;;5032641;28;20033;-62
2021/04/24 01:04:29;;;;;;;19.85;9.35;;;8.10;92.10;;;;;;5033697;28;20108;-62
2021/04/24 01:06:55;;;;;;;21.58;9.95;;;8.10;92.40;;;;;;5033780;28;20466;-62
2021/04/24 01:09:21;;;;;;;16.45;9.65;;;8.00;92.60;;;;;;5033229;28;20136;-62
2021/04/24 01:11:46;;;;;;;17.75;8.68;;;8.00;92.90;;;;;;5031851;28;20104;-62
2021/04/24 01:14:12;;;;;;;20.00;9.90;;;8.00;93.10;;;;;;5033136;28;20026;-62
2021/04/24 01:16:38;;;;;;;20.65;9.55;;;7.90;93.30;;;;;;5033721;28;20032;-62
2021/04/24 01:19:04;;;;;;;17.05;8.98;;;7.90;93.50;;;;;;5033489;28;20025;-62
2021/04/24 01:21:30;;;;;;;20.15;10.48;;;7.90;93.70;;;;;;5033604;28;20156;-62
2021/04/24 01:23:56;;;;;;;18.65;9.15;;;7.80;94.00;;;;;;5032960;28;20028;-62
2021/04/24 01:26:23;;;;;;;21.65;9.90;;;7.80;94.10;;;;;;5032445;28;20021;-61
2021/04/24 01:28:48;;;;;;;18.90;9.57;;;7.90;93.90;;;;;;5033113;28;20025;-62
2021/04/24 01:31:17;;;;;;;27.67;10.73;;;7.90;94.20;;;;;;5032835;28;20100;-62
2021/04/24 01:33:42;;;;;;;19.70;10.10;;;7.70;94.50;;;;;;5031746;28;20033;-62
2021/04/24 01:36:08;;;;;;;19.92;10.27;;;7.70;94.90;;;;;;5031937;28;20021;-62
2021/04/24 01:38:34;;;;;;;18.98;10.18;;;7.70;95.00;;;;;;5033165;28;20386;-62
2021/04/24 01:41:00;;;;;;;20.55;11.25;;;7.80;94.90;;;;;;5033742;28;20064;-62
2021/04/24 01:43:26;;;;;;;19.00;10.57;;;7.80;94.70;;;;;;5033604;28;20029;-62
2021/04/24 01:45:52;;;;;;;17.35;10.18;;;7.70;95.00;;;;;;5033585;28;20553;-62
2021/04/24 01:48:17;;;;;;;20.42;10.82;;;7.60;95.40;;;;;;5031590;28;20056;-62
2021/04/24 01:50:46;;;;;;;23.17;10.98;;;7.50;95.70;;;;;;5032822;28;20429;-62
2021/04/24 01:53:17;;;;;;;17.25;9.88;;;7.50;96.00;;;;;;5032924;28;20063;-62
2021/04/24 01:55:44;;;;;;;22.77;10.95;;;7.50;96.10;;;;;;5032867;28;20013;-62
2021/04/24 01:58:12;;;;;;;20.25;9.93;;;7.40;96.50;;;;;;5032742;28;20084;-62
2021/04/24 02:00:48;;;;;;;19.73;10.60;;;7.40;96.60;;;;;;5048526;28;20056;-62
2021/04/24 02:03:15;;;;;;;20.77;10.55;;;7.40;96.80;;;;;;5033458;28;20029;-62
2021/04/24 02:05:44;;;;;;;19.63;11.82;;;7.40;96.90;;;;;;5031275;28;20079;-62
2021/04/24 02:08:19;;;;;;;23.58;11.75;;;7.50;96.80;;;;;;5032973;28;20022;-62
2021/04/24 02:10:48;;;;;;;21.75;11.43;;;7.60;96.60;;;;;;5033177;28;20037;-61
2021/04/24 02:13:25;;;;;;;24.65;11.70;;;7.40;96.80;;;;;;5032817;28;20025;-60
2021/04/24 02:15:50;;;;;;;22.10;11.15;;;7.40;96.70;;;;;;5032587;28;20022;-61
2021/04/24 02:18:17;;;;;;;18.20;11.18;;;7.40;97.00;;;;;;5032309;28;20025;-62
2021/04/24 02:20:43;;;;;;;27.65;11.88;;;7.30;97.50;;;;;;5032716;28;20029;-62
2021/04/24 02:23:11;;;;;;;24.77;12.73;;;7.20;97.80;;;;;;5032671;28;20121;-62
2021/04/24 02:25:38;;;;;;;26.75;12.43;;;7.20;97.70;;;;;;5031280;28;20040;-61
2021/04/24 02:28:04;;;;;;;23.15;12.43;;;7.30;97.60;;;;;;5031935;28;20026;-61
2021/04/24 02:30:29;;;;;;;27.10;13.18;;;7.20;97.70;;;;;;5032228;28;20103;-62
2021/04/24 02:32:55;;;;;;;24.98;11.80;;;7.20;97.70;;;;;;5032629;28;20080;-61
2021/04/24 02:35:31;;;;;;;21.75;12.25;;;7.20;97.70;;;;;;5032304;28;20043;-61
2021/04/24 02:37:57;;;;;;;25.73;12.13;;;7.10;97.90;;;;;;5031690;28;20034;-61
2021/04/24 02:40:23;;;;;;;21.40;11.50;;;7.10;98.00;;;;;;5032151;28;20044;-62
2021/04/24 02:42:49;;;;;;;26.95;12.73;;;7.10;98.20;;;;;;5032488;28;20363;-61
2021/04/24 02:45:16;;;;;;;24.25;11.77;;;7.10;98.40;;;;;;5032107;28;20247;-61
2021/04/24 02:47:42;;;;;;;26.88;12.13;;;7.20;98.20;;;;;;5032299;28;20071;-62
2021/04/24 02:50:11;;;;;;;23.73;12.20;;;7.10;98.30;;;;;;5032273;28;20021;-61
2021/04/24 02:52:37;;;;;;;25.88;11.18;;;7.00;98.70;;;;;;5031735;28;20573;-61
2021/04/24 02:55:05;;;;;;;25.30;12.45;;;7.00;98.70;;;;;;5031805;28;20064;-61
2021/04/24 02:57:31;;;;;;;25.83;11.95;;;7.10;98.40;;;;;;5030520;28;20045;-61
2021/04/24 02:59:56;;;;;;;22.80;11.05;;;7.10;98.30;;;;;;5032100;28;20490;-61
2021/04/24 03:02:22;;;;;;;26.40;12.57;;;7.00;98.60;;;;;;5030655;28;20033;-62
2021/04/24 03:04:48;;;;;;;21.08;11.23;;;7.00;98.60;;;;;;5032069;28;20546;-62
2021/04/24 03:07:13;;;;;;;24.85;11.30;;;6.90;98.90;;;;;;5031035;28;20040;-62
2021/04/24 03:09:39;;;;;;;23.55;12.13;;;6.80;99.40;;;;;;5032283;28;20052;-62
2021/04/24 03:12:06;;;;;;;24.08;11.55;;;6.80;99.70;;;;;;5030659;28;20028;-62
2021/04/24 03:14:32;;;;;;;25.75;12.15;;;6.80;99.70;;;;;;5031877;28;20029;-62
2021/04/24 03:16:57;;;;;;;22.83;11.52;;;6.80;99.90;;;;;;5034543;28;20116;-62
2021/04/24 03:19:23;;;;;;;23.08;11.38;;;6.80;99.80;;;;;;5035862;28;20054;-62
2021/04/24 03:21:49;;;;;;;22.83;11.85;;;6.90;99.80;;;;;;5035697;28;20076;-61
2021/04/24 03:24:15;;;;;;;21.98;12.20;;;6.90;99.80;;;;;;5036061;28;20433;-62
2021/04/24 03:26:40;;;;;;;24.00;12.35;;;6.80;99.90;;;;;;5034463;28;20544;-62
2021/04/24 03:29:06;;;;;;;20.38;11.27;;;6.70;99.90;;;;;;5035129;28;20057;-62
2021/04/24 03:31:32;;;;;;;21.63;11.35;;;6.70;99.90;;;;;;5035813;28;20026;-62
2021/04/24 03:33:58;;;;;;;21.50;11.85;;;6.70;99.90;;;;;;5035697;28;20018;-62
2021/04/24 03:36:23;;;;;;;23.42;11.63;;;6.70;99.90;;;;;;5035410;28;20022;-62
2021/04/24 03:38:49;;;;;;;23.42;12.07;;;6.70;99.90;;;;;;5034699;28;20021;-63
2021/04/24 03:41:16;;;;;;;24.30;12.35;;;6.70;99.90;;;;;;5035027;28;20481;-62
2021/04/24 03:43:41;;;;;;;20.92;11.68;;;6.70;99.90;;;;;;5035901;28;20040;-62
2021/04/24 03:46:07;;;;;;;24.90;12.73;;;6.70;99.90;;;;;;5035889;28;20444;-62
2021/04/24 03:48:33;;;;;;;23.73;11.05;;;6.70;99.90;;;;;;5034765;28;20025;-61
2021/04/24 03:51:00;;;;;;;25.13;11.75;;;6.70;99.90;;;;;;5034885;28;20423;-62
2021/04/24 03:53:26;;;;;;;20.20;11.15;;;6.60;99.90;;;;;;5035043;28;20382;-62
2021/04/24 03:55:51;;;;;;;23.55;11.73;;;6.60;99.90;;;;;;5035335;28;20421;-62
2021/04/24 03:58:17;;;;;;;24.30;11.63;;;6.60;99.90;;;;;;5035226;28;20049;-62
2021/04/24 04:00:43;;;;;;;21.85;11.43;;;6.50;99.90;;;;;;5035765;28;20321;-62
2021/04/24 04:03:09;;;;;;;23.48;12.02;;;6.50;99.90;;;;;;5033856;28;20038;-61
2021/04/24 04:05:39;;;;;;;20.05;11.60;;;6.40;99.90;;;;;;5034878;28;20111;-62
2021/04/24 04:08:06;;;;;;;23.40;11.30;;;6.40;99.90;;;;;;5035227;28;20283;-61
2021/04/24 04:10:33;;;;;;;26.02;12.27;;;6.40;99.90;;;;;;5035327;28;20001;-61
2021/04/24 04:12:59;;;;;;;23.17;12.32;;;6.40;99.90;;;;;;5034726;28;20025;-61
2021/04/24 04:15:26;;;;;;;20.60;11.43;;;6.40;99.90;;;;;;5035067;28;20150;-61
2021/04/24 04:18:12;;;;;;;23.55;12.05;;;6.30;99.90;;;;;;5034274;28;20433;-60
2021/04/24 04:20:41;;;;;;;21.58;11.90;;;6.50;99.90;;;;;;5034449;28;20025;-59
2021/04/24 04:23:08;;;;;;;21.58;11.40;;;6.40;99.90;;;;;;5035600;28;20025;-61
2021/04/24 04:25:33;;;;;;;17.63;10.10;;;6.30;99.90;;;;;;5034432;28;20025;-61
2021/04/24 04:27:59;;;;;;;22.55;11.63;;;6.20;99.90;;;;;;5033409;28;20026;-61
2021/04/24 04:30:25;;;;;;;20.90;11.18;;;6.30;99.90;;;;;;5033007;28;20168;-61
2021/04/24 04:32:51;;;;;;;24.17;10.32;;;6.30;99.90;;;;;;5033549;28;20383;-61
2021/04/24 04:35:18;;;;;;;21.63;10.50;;;6.20;99.90;;;;;;5035265;28;20079;-61
2021/04/24 04:37:44;;;;;;;21.45;10.68;;;6.30;99.90;;;;;;5033502;28;20053;-61
2021/04/24 04:40:11;;;;;;;21.75;10.43;;;6.40;99.20;;;;;;5034475;28;20505;-61
2021/04/24 04:42:38;;;;;;;24.27;10.23;;;6.40;99.20;;;;;;5034023;28;20021;-61
2021/04/24 04:45:06;;;;;;;21.35;10.20;;;6.30;99.10;;;;;;5033486;28;20032;-62
2021/04/24 04:47:32;;;;;;;23.73;10.88;;;6.30;99.10;;;;;;5032338;28;20036;-62
2021/04/24 04:49:58;;;;;;;21.05;10.70;;;6.30;99.10;;;;;;5033601;28;20087;-61
2021/04/24 04:52:24;;;;;;;16.73;9.02;;;6.30;98.80;;;;;;5034210;28;20026;-61
2021/04/24 04:54:49;;;;;;;15.85;9.43;;;6.20;98.80;;;;;;5033902;28;20105;-62
2021/04/24 04:57:15;;;;;;;19.95;9.32;;;6.20;98.70;;;;;;5049178;28;20181;-61
2021/04/24 04:59:40;;;;;;;15.98;8.75;;;6.40;98.30;;;;;;5032668;28;20087;-61
2021/04/24 05:02:06;;;;;;;17.92;9.68;;;6.50;97.80;;;;;;5032972;28;20138;-61
2021/04/24 05:04:33;;;;;;;20.15;9.32;;;6.60;97.10;;;;;;5034470;28;20036;-61
2021/04/24 05:06:59;;;;;;;17.95;8.90;;;6.60;97.10;;;;;;5032837;28;20470;-61
2021/04/24 05:09:25;;;;;;;20.20;9.55;;;6.40;97.40;;;;;;5034042;28;20021;-61
2021/04/24 05:11:50;;;;;;;16.40;9.18;;;6.50;97.40;;;;;;5032256;28;20495;-62
2021/04/24 05:14:17;;;;;;;21.27;8.93;;;6.50;97.30;;;;;;5032557;28;20378;-62
2021/04/24 05:16:43;;;;;;;15.60;9.40;;;6.50;97.30;;;;;;5033251;28;20071;-61
2021/04/24 05:19:09;;;;;;;19.63;8.50;;;6.50;97.30;;;;;;5033460;28;20377;-61
2021/04/24 05:21:35;;;;;;;20.92;8.77;;;6.60;97.30;;;;;;5032317;28;20113;-61
2021/04/24 05:24:02;;;;;;;15.27;8.75;;;6.70;97.00;;;;;;5033683;28;20446;-61
2021/04/24 05:26:27;;;;;;;17.42;8.98;;;6.80;96.50;;;;;;5033977;28;20040;-61
2021/04/24 05:28:53;;;;;;;21.75;9.48;;;6.90;96.50;;;;;;5033265;28;20029;-61
2021/04/24 05:31:19;;;;;;;17.02;8.40;;;6.80;96.40;;;;;;5032204;28;20059;-61
2021/04/24 05:33:45;;;;;;;19.13;9.15;;;6.80;96.20;;;;;;5033434;28;20045;-61
2021/04/24 05:36:13;;;;;;;19.85;10.10;;;6.80;96.40;;;;;;5032266;28;20446;-62
2021/04/24 05:38:39;;;;;;;14.68;8.88;;;6.80;96.30;;;;;;5031565;28;20022;-62
2021/04/24 05:41:06;;;;;;;20.30;9.20;;;6.90;96.10;;;;;;5032925;28;20072;-62
2021/04/24 05:43:31;;;;;;;20.80;9.88;;;6.90;96.00;;;;;;5033375;28;20035;-62
2021/04/24 05:45:57;;;;;;;17.45;10.13;;;6.90;95.90;;;;;;5033226;28;20526;-61
2021/04/24 05:48:23;;;;;;;17.92;9.50;;;6.90;96.00;;;;;;5031903;28;20466;-62
2021/04/24 05:50:48;;;;;;;19.63;9.30;;;6.90;96.20;;;;;;5033443;28;20129;-62
2021/04/24 05:53:14;;;;;;;21.83;10.63;;;6.80;96.40;;;;;;5033445;28;20017;-61
2021/04/24 05:55:40;;;;;;;19.25;9.85;;;6.90;96.50;;;;;;5033326;28;20490;-61
2021/04/24 05:58:05;;;;;;;19.92;10.55;;;7.10;95.90;;;;;;5032673;28;20421;-61
2021/04/24 06:00:31;;;;;;;19.65;10.00;;;7.20;95.60;;;;;;5032923;28;20502;-61
2021/04/24 06:02:56;;;;;;;20.63;10.25;;;7.20;95.80;;;;;;5033432;28;20033;-62
2021/04/24 06:05:22;;;;;;;24.83;10.10;;;7.20;96.00;;;;;;5032537;28;20029;-62
2021/04/24 06:07:48;;;;;;;17.50;9.48;;;7.20;96.00;;;;;;5033181;28;20031;-61
2021/04/24 06:10:16;;;;;;;16.85;9.60;;;7.30;95.70;;;;;;5032622;28;20053;-61
2021/04/24 06:12:43;;;;;;;17.15;9.73;;;7.30;95.50;;;;;;5033399;28;20022;-61
2021/04/24 06:15:10;;;;;;;16.60;9.80;;;7.60;94.80;;;;;;5032640;28;20104;-61
2021/04/24 06:17:36;;;;;;;25.20;10.63;;;7.70;94.20;;;;;;5032531;28;20033;-61
2021/04/24 06:20:04;;;;;;;17.40;9.35;;;7.80;94.50;;;;;;5032723;28;20104;-61
2021/04/24 06:22:29;;;;;;;17.83;9.30;;;7.70;94.50;;;;;;5032460;28;20024;-61
2021/04/24 06:24:55;;;;;;;18.88;10.35;;;7.70;94.30;;;;;;5032698;28;20033;-61
2021/04/24 06:27:21;;;;;;;19.67;10.55;;;7.70;94.40;;;;;;5032084;28;20378;-61
2021/04/24 06:29:46;;;;;;;22.27;9.73;;;7.90;94.20;;;;;;5031561;28;20566;-61
2021/04/24 06:32:12;;;;;;;26.70;10.07;;;7.90;93.90;;;;;;5032161;28;20021;-61
2021/04/24 06:34:38;;;;;;;23.73;10.25;;;7.90;94.10;;;;;;5032568;28;20466;-61
2021/04/24 06:37:05;;;;;;;22.48;9.73;;;7.90;94.00;;;;;;5032766;28;20389;-61
2021/04/24 06:39:31;;;;;;;18.17;9.82;;;8.00;93.40;;;;;;5032217;28;20080;-61
2021/04/24 06:41:57;;;;;;;17.75;10.02;;;8.00;93.40;;;;;;5032423;28;20029;-61
2021/04/24 06:44:22;;;;;;;17.58;9.73;;;8.10;93.10;;;;;;5032732;28;20024;-61
2021/04/24 06:46:48;;;;;;;21.05;10.35;;;8.20;93.00;;;;;;5032574;28;20021;-61
2021/04/24 06:49:13;;;;;;;16.73;9.25;;;8.20;92.80;;;;;;5032057;28;20018;-62
2021/04/24 06:51:39;;;;;;;17.58;9.55;;;8.20;92.20;;;;;;5032944;28;20037;-59
2021/04/24 06:54:05;;;;;;;18.27;10.32;;;8.20;92.00;;;;;;5032610;28;20030;-61
2021/04/24 06:56:31;;;;;;;18.45;8.65;;;8.20;92.40;;;;;;5032615;28;20409;-62
2021/04/24 06:58:57;;;;;;;20.38;9.20;;;8.30;92.50;;;;;;5031746;28;20041;-62
2021/04/24 07:01:23;;;;;;;19.42;9.43;;;8.40;92.40;;;;;;5031704;28;20071;-62
2021/04/24 07:03:49;;;;;;;18.00;8.80;;;8.60;91.60;;;;;;5032292;28;20022;-61
2021/04/24 07:06:15;;;;;;;17.67;9.35;;;8.80;90.70;;;;;;5031809;28;20025;-61
2021/04/24 07:08:40;;;;;;;17.38;9.18;;;8.90;90.70;;;;;;5030437;28;20029;-61
2021/04/24 07:11:06;;;;;;;18.63;8.95;;;8.90;90.70;;;;;;5032306;28;20026;-61
2021/04/24 07:13:32;;;;;;;16.75;7.53;;;9.10;90.50;;;;;;5032102;28;20025;-62
2021/04/24 07:16:02;;;;;;;14.13;8.10;;;10.20;88.80;;;;;;5031556;28;20105;-62
2021/04/24 07:18:30;;;;;;;17.63;7.95;;;11.80;81.50;;;;;;5031410;28;20448;-62
2021/04/24 07:20:55;;;;;;;14.75;8.07;;;13.00;73.90;;;;;;5031169;28;20033;-63
2021/04/24 07:23:21;;;;;;;12.48;7.65;;;13.70;71.00;;;;;;5031135;28;20042;-62
2021/04/24 07:25:47;;;;;;;14.75;7.47;;;14.30;68.30;;;;;;5030394;28;20478;-62
2021/04/24 07:28:12;;;;;;;11.45;7.68;;;14.70;65.70;;;;;;5030292;28;20026;-63
2021/04/24 07:30:38;;;;;;;16.60;7.80;;;15.50;63.70;;;;;;5030161;28;20056;-63
2021/04/24 07:33:04;;;;;;;11.88;7.15;;;15.80;60.50;;;;;;5030091;28;20021;-63
2021/04/24 07:35:29;;;;;;;10.77;6.80;;;16.20;57.90;;;;;;5028807;28;20033;-63
2021/04/24 07:37:55;;;;;;;13.60;7.13;;;16.30;57.20;;;;;;5030630;28;20458;-63
2021/04/24 07:40:21;;;;;;;13.85;7.47;;;15.90;56.40;;;;;;5029950;28;20026;-62
2021/04/24 07:42:46;;;;;;;11.77;7.00;;;15.30;56.90;;;;;;5030857;28;20091;-62
2021/04/24 07:45:13;;;;;;;13.43;7.25;;;14.60;58.40;;;;;;5031431;28;20029;-62
2021/04/24 07:47:42;;;;;;;10.35;6.60;;;14.40;59.40;;;;;;5031582;28;20021;-62
2021/04/24 07:50:08;;;;;;;10.00;7.20;;;14.20;60.10;;;;;;5032086;28;20052;-62
2021/04/24 07:52:34;;;;;;;12.57;6.80;;;14.20;60.50;;;;;;5031247;28;20091;-62
2021/04/24 07:55:00;;;;;;;12.45;6.43;;;14.40;59.90;;;;;;5030096;28;20018;-62
2021/04/24 07:57:28;;;;;;;14.70;6.88;;;14.60;59.00;;;;;;5031109;28;20046;-62
2021/04/24 07:59:54;;;;;;;9.27;6.20;;;14.40;59.50;;;;;;5029098;28;20029;-62
2021/04/24 08:02:19;;;;;;;13.75;6.72;;;14.10;59.20;;;;;;5031301;28;20475;-62
2021/04/24 08:04:45;;;;;;;10.55;6.07;;;14.30;59.90;;;;;;5032926;28;20065;-62
2021/04/24 08:07:10;;;;;;;14.63;6.78;;;14.60;59.10;;;;;;5034891;28;20079;-63
2021/04/24 08:09:37;;;;;;;13.48;7.10;;;14.80;58.30;;;;;;5034766;28;20540;-62
2021/04/24 08:12:04;;;;;;;10.75;6.35;;;14.70;58.60;;;;;;5032962;28;20025;-62
2021/04/24 08:14:30;;;;;;;7.95;5.90;;;14.70;59.00;;;;;;5034393;28;20075;-62
2021/04/24 08:16:55;;;;;;;11.25;6.22;;;15.00;58.30;;;;;;5034092;28;20025;-62
2021/04/24 08:19:21;;;;;;;10.90;6.68;;;15.10;56.70;;;;;;5034594;28;20033;-62
2021/04/24 08:21:47;;;;;;;12.57;6.43;;;14.90;57.40;;;;;;5034068;28;20471;-62
2021/04/24 08:24:13;;;;;;;13.70;6.45;;;14.80;58.10;;;;;;5034146;28;20104;-63
2021/04/24 08:26:39;;;;;;;9.80;6.30;;;15.10;57.60;;;;;;5034096;28;20156;-63
2021/04/24 08:29:06;;;;;;;11.27;6.43;;;15.60;55.90;;;;;;5033549;28;20040;-63
2021/04/24 08:31:34;;;;;;;11.07;6.15;;;15.80;56.00;;;;;;5033031;28;20029;-63
2021/04/24 08:33:59;;;;;;;14.20;6.90;;;15.80;54.90;;;;;;5034091;28;20115;-62
2021/04/24 08:36:25;;;;;;;10.88;6.53;;;15.90;55.60;;;;;;5034309;28;20490;-62
2021/04/24 08:38:51;;;;;;;12.18;6.03;;;16.00;55.80;;;;;;5033641;28;20055;-62
2021/04/24 08:41:17;;;;;;;12.57;6.00;;;16.10;55.90;;;;;;5031685;28;20513;-63
2021/04/24 08:43:43;;;;;;;7.75;5.57;;;16.60;53.40;;;;;;5033152;28;20029;-63
2021/04/24 08:46:09;;;;;;;13.38;6.35;;;17.30;52.20;;;;;;5033150;28;20425;-63
2021/04/24 08:48:36;;;;;;;11.63;5.90;;;17.60;52.30;;;;;;5032929;28;20021;-63
2021/04/24 08:51:02;;;;;;;8.90;5.90;;;18.20;50.30;;;;;;5031507;28;20018;-63
2021/04/24 08:53:27;;;;;;;11.20;6.15;;;18.00;50.20;;;;;;5031520;28;20025;-63
2021/04/24 08:55:53;;;;;;;13.13;6.10;;;18.10;50.50;;;;;;5032780;28;20324;-63
2021/04/24 08:58:20;;;;;;;9.07;5.75;;;18.00;50.70;;;;;;5032375;28;20053;-63
2021/04/24 09:00:50;;;;;;;9.30;5.97;;;17.80;49.90;;;;;;5032714;28;20379;-63
2021/04/24 09:03:21;;;;;;;9.35;5.10;;;18.00;50.60;;;;;;5031314;28;20060;-63
2021/04/24 09:05:51;;;;;;;11.48;5.35;;;18.20;50.00;;;;;;5032408;28;20153;-64
2021/04/24 09:08:26;;;;;;;7.90;4.57;;;18.70;49.10;;;;;;5032749;28;20512;-63
2021/04/24 09:10:56;;;;;;;12.18;5.32;;;18.90;48.00;;;;;;5032476;28;20096;-63
2021/04/24 09:13:26;;;;;;;8.85;5.30;;;18.80;48.00;;;;;;5032236;28;20053;-63
2021/04/24 09:15:52;;;;;;;8.35;4.88;;;19.30;47.00;;;;;;5032232;28;20022;-63
2021/04/24 09:18:19;;;;;;;8.02;5.53;;;19.20;46.40;;;;;;5032511;28;20021;-63
2021/04/24 09:20:56;;;;;;;11.73;5.20;;;19.00;46.60;;;;;;5031188;28;20478;-63
2021/04/24 09:23:29;;;;;;;10.30;5.50;;;18.60;48.30;;;;;;5030836;28;20117;-63
2021/04/24 09:26:06;;;;;;;9.35;5.05;;;18.80;48.20;;;;;;5031359;28;20363;-63
2021/04/24 09:28:44;;;;;;;9.50;5.45;;;18.90;47.10;;;;;;5031995;28;20513;-63
2021/04/24 09:31:15;;;;;;;17.50;5.43;;;19.10;46.90;;;;;;5032282;28;20017;-63
2021/04/24 09:33:44;;;;;;;11.40;4.90;;;18.60;46.30;;;;;;5032438;28;20049;-63
2021/04/24 09:36:11;;;;;;;13.43;5.10;;;17.80;48.40;;;;;;5032386;28;20025;-63
2021/04/24 09:38:42;;;;;;;8.80;4.72;;;17.90;49.10;;;;;;5031979;28;20029;-63
2021/04/24 09:41:12;;;;;;;11.45;4.55;;;18.30;48.40;;;;;;5031937;28;20033;-63
2021/04/24 09:43:55;;;;;;;9.18;4.35;;;18.70;47.10;;;;;;5032091;28;20025;-63
2021/04/24 09:46:23;;;;;;;9.60;4.20;;;18.80;46.50;;;;;;5031832;28;20052;-63
2021/04/24 09:48:49;;;;;;;5.72;4.22;;;18.80;47.40;;;;;;5031906;28;20068;-63
2021/04/24 09:51:19;;;;;;;8.05;4.57;;;19.10;46.30;;;;;;5031970;28;20049;-63
2021/04/24 09:53:59;;;;;;;7.30;4.60;;;19.00;46.90;;;;;;5031352;28;20041;-63
2021/04/24 09:56:25;;;;;;;7.50;4.00;;;19.70;45.60;;;;;;5030707;28;20022;-63
2021/04/24 09:58:51;;;;;;;6.30;3.47;;;19.70;45.20;;;;;;5031499;28;20113;-63
2021/04/24 10:01:28;;;;;;;8.55;4.15;;;19.50;44.50;;;;;;5032527;28;20049;-63
2021/04/24 10:03:54;;;;;;;5.05;3.70;;;19.30;45.10;;;;;;5031834;28;20057;-63
2021/04/24 10:06:24;;;;;;;6.18;3.67;;;19.40;45.80;;;;;;5031933;28;20490;-63
2021/04/24 10:08:51;;;;;;;8.48;3.70;;;18.50;45.10;;;;;;5031601;28;20226;-63
2021/04/24 10:11:27;;;;;;;38.92;5.50;;;18.40;46.00;;;;;;5032490;28;20025;-64
2021/04/24 10:13:53;;;;;;;6.20;3.90;;;17.60;46.40;;;;;;5031460;28;20021;-64
2021/04/24 10:16:31;;;;;;;12.98;4.68;;;17.20;48.10;;;;;;5032551;28;20049;-63
2021/04/24 10:18:57;;;;;;;5.68;4.63;;;17.20;48.50;;;;;;5032539;28;20026;-63
2021/04/24 10:21:24;;;;;;;9.18;4.53;;;17.20;49.30;;;;;;5032573;28;20386;-62
2021/04/24 10:23:51;;;;;;;7.20;4.30;;;17.40;48.30;;;;;;5031606;28;20036;-64
2021/04/24 10:26:17;;;;;;;10.88;4.63;;;17.80;48.90;;;;;;5030937;28;20523;-64
2021/04/24 10:28:45;;;;;;;8.55;4.78;;;18.20;47.40;;;;;;5031160;28;20397;-63
2021/04/24 10:31:11;;;;;;;11.55;4.78;;;18.60;47.50;;;;;;5031377;28;20048;-64
2021/04/24 10:33:38;;;;;;;6.38;4.07;;;18.70;47.10;;;;;;5031060;28;20486;-63
2021/04/24 10:36:05;;;;;;;8.15;4.78;;;19.70;45.50;;;;;;5031689;28;20036;-65
2021/04/24 10:38:32;;;;;;;8.23;4.60;;;20.60;43.80;;;;;;5031217;28;20109;-64
2021/04/24 10:40:57;;;;;;;7.75;4.88;;;20.80;42.50;;;;;;5031033;28;20429;-65
2021/04/24 10:43:24;;;;;;;9.00;5.38;;;21.00;43.10;;;;;;5031005;28;20112;-64
2021/04/24 10:45:49;;;;;;;9.35;4.70;;;20.80;42.80;;;;;;5031054;28;20036;-64
2021/04/24 10:48:23;;;;;;;9.88;5.60;;;20.50;44.10;;;;;;5031147;28;20030;-63
2021/04/24 10:50:49;;;;;;;9.80;5.57;;;19.30;45.30;;;;;;5029386;28;20025;-62
2021/04/24 10:53:30;;;;;;;10.32;5.32;;;18.70;47.40;;;;;;5030773;28;20025;-62
2021/04/24 10:56:00;;;;;;;10.55;5.80;;;18.60;46.80;;;;;;5030963;28;20036;-62
2021/04/24 10:58:27;;;;;;;8.15;4.97;;;19.20;46.70;;;;;;5030619;28;20506;-62
2021/04/24 11:01:01;;;;;;;7.90;6.03;;;19.30;45.60;;;;;;5030836;28;20021;-63
2021/04/24 11:03:35;;;;;;;9.73;5.90;;;19.30;46.50;;;;;;5030504;28;20026;-62
2021/04/24 11:06:13;;;;;;;9.32;5.70;;;19.10;46.50;;;;;;5030640;28;20035;-62
2021/04/24 11:08:40;;;;;;;8.98;5.90;;;19.20;47.60;;;;;;5029310;28;20406;-63
2021/04/24 11:11:07;;;;;;;10.38;6.15;;;19.80;45.70;;;;;;5029321;28;20038;-63
2021/04/24 11:13:33;;;;;;;11.68;5.65;;;18.80;46.30;;;;;;5030899;28;20108;-62
2021/04/24 11:16:02;;;;;;;11.32;6.10;;;18.40;47.10;;;;;;5030480;28;20415;-62
2021/04/24 11:18:29;;;;;;;10.98;6.38;;;18.70;48.40;;;;;;5029098;28;20374;-63
2021/04/24 11:20:56;;;;;;;10.02;6.20;;;19.20;46.80;;;;;;5030606;28;20367;-63
2021/04/24 11:23:33;;;;;;;8.85;6.10;;;19.70;46.10;;;;;;5029329;28;20121;-63
2021/04/24 11:26:00;;;;;;;9.52;5.53;;;20.20;43.90;;;;;;5030757;28;20028;-63
2021/04/24 11:28:27;;;;;;;9.73;6.35;;;20.60;43.80;;;;;;5030490;28;20120;-63
2021/04/24 11:31:01;;;;;;;10.68;5.90;;;21.00;42.60;;;;;;5030628;28;20482;-63
2021/04/24 11:33:37;;;;;;;10.85;6.20;;;21.70;41.70;;;;;;5030447;28;20537;-63
2021/04/24 11:36:27;;;;;;;10.27;6.32;;;21.60;41.50;;;;;;5030496;28;20037;-62
2021/04/24 11:38:56;;;;;;;11.02;6.50;;;20.70;43.30;;;;;;5034366;28;20029;-63
2021/04/24 11:41:40;;;;;;;8.27;6.57;;;20.40;43.70;;;;;;5032933;28;20026;-63
2021/04/24 11:44:17;;;;;;;11.40;6.43;;;20.20;44.20;;;;;;5034106;28;20583;-63
2021/04/24 11:46:48;;;;;;;8.10;5.55;;;20.00;44.60;;;;;;5034196;28;20052;-63
2021/04/24 11:49:16;;;;;;;11.85;6.18;;;20.90;44.50;;;;;;5034084;28;20033;-63
2021/04/24 11:51:53;;;;;;;8.23;6.00;;;21.30;42.50;;;;;;5033114;28;20021;-63
2021/04/24 11:54:27;;;;;;;13.05;6.00;;;21.40;42.10;;;;;;5034585;28;20021;-63
2021/04/24 11:56:56;;;;;;;9.73;6.40;;;21.90;40.70;;;;;;5033901;28;20340;-63
2021/04/24 11:59:33;;;;;;;9.85;6.55;;;21.50;40.70;;;;;;5033781;28;20033;-63
2021/04/24 12:02:04;;;;;;;10.38;6.65;;;21.00;42.10;;;;;;5033864;28;20034;-63
2021/04/24 12:04:33;;;;;;;12.52;5.82;;;20.50;44.10;;;;;;5033910;28;20188;-63
2021/04/24 12:07:10;;;;;;;11.13;6.68;;;21.30;42.60;;;;;;5032737;28;20485;-63
2021/04/24 12:09:45;;;;;;;10.30;5.65;;;21.40;42.00;;;;;;5033787;28;20021;-63
2021/04/24 12:12:11;;;;;;;10.48;5.72;;;21.30;41.60;;;;;;5034226;28;20033;-63
2021/04/24 12:14:37;;;;;;;17.13;6.18;;;21.20;42.00;;;;;;5033980;28;20409;-63
2021/04/24 12:17:11;;;;;;;9.75;6.57;;;22.00;40.90;;;;;;5034203;28;20045;-62
2021/04/24 12:19:39;;;;;;;10.02;6.55;;;21.90;40.10;;;;;;5033848;28;20036;-62
2021/04/24 12:22:16;;;;;;;13.55;6.80;;;21.50;41.10;;;;;;5033490;28;20030;-62
2021/04/24 12:24:56;;;;;;;12.00;6.80;;;21.60;41.80;;;;;;5032323;28;20550;-62
2021/04/24 12:27:33;;;;;;;12.13;7.03;;;21.80;41.60;;;;;;5032489;28;20390;-62
2021/04/24 12:29:59;;;;;;;8.35;6.07;;;21.90;41.20;;;;;;5033357;28;20067;-62
2021/04/24 12:32:49;;;;;;;9.65;5.85;;;21.30;41.10;;;;;;5033418;28;20029;-62
2021/04/24 12:35:24;;;;;;;8.25;6.32;;;20.90;41.60;;;;;;5033684;28;20086;-62
2021/04/24 12:38:07;;;;;;;10.70;6.80;;;21.30;41.30;;;;;;5033528;28;20052;-62
2021/04/24 12:40:55;;;;;;;10.57;6.78;;;22.20;41.30;;;;;;5033421;28;20037;-63
2021/04/24 12:43:25;;;;;;;11.05;7.13;;;21.70;40.90;;;;;;5033830;28;20044;-62